createdAt,value
2023-01-17T00:05:18.288Z,4.80
2023-01-17T00:10:25.754Z,4.82
2023-01-17T00:15:29.551Z,5.32
2023-01-17T00:20:50.925Z,4.85
2023-01-17T00:26:05.578Z,5.00
2023-01-17T00:31:09.054Z,2.53
2023-01-17T00:36:11.887Z,2.42
2023-01-17T00:41:14.765Z,1.95
2023-01-17T00:46:35.498Z,2.40
2023-01-17T00:51:57.145Z,2.40
2023-01-17T00:57:18.663Z,1.83
2023-01-17T01:02:39.886Z,1.95
2023-01-17T01:08:00.394Z,2.17
2023-01-17T01:13:21.266Z,1.30
2023-01-17T01:18:41.831Z,1.40
2023-01-17T01:24:02.480Z,1.00
2023-01-17T01:29:23.010Z,1.00
2023-01-17T01:34:24.888Z,0.73
2023-01-17T01:39:26.834Z,0.90
2023-01-17T01:44:49.721Z,0.90
2023-01-17T01:49:51.917Z,0.82
2023-01-17T01:55:00.894Z,0.73
2023-01-17T02:00:07.790Z,1.23
2023-01-17T02:05:16.913Z,0.63
2023-01-17T02:10:18.982Z,0.75
2023-01-17T02:15:26.282Z,0.88
2023-01-17T02:20:58.926Z,0.60
2023-01-17T02:26:31.229Z,0.50
2023-01-17T02:31:51.629Z,0.70
2023-01-17T02:37:11.911Z,0.40
2023-01-17T02:42:18.283Z,0.30
2023-01-17T02:47:26.795Z,0.45
2023-01-17T02:52:34.483Z,0.40
2023-01-17T02:57:55.101Z,0.30
2023-01-17T03:03:05.703Z,0.30
2023-01-17T03:08:08.162Z,0.20
2023-01-17T03:13:10.138Z,0.30
2023-01-17T03:18:15.094Z,0.30
2023-01-17T03:23:16.903Z,0.28
2023-01-17T03:28:18.730Z,0.20
2023-01-17T03:33:20.570Z,0.20
2023-01-17T03:38:22.492Z,0.30
2023-01-17T03:43:24.331Z,0.30
2023-01-17T03:48:26.139Z,0.22
2023-01-17T03:53:27.947Z,0.32
2023-01-17T03:58:29.792Z,0.40
2023-01-17T04:03:31.675Z,0.50
2023-01-17T04:08:33.518Z,0.38
2023-01-17T04:13:35.364Z,0.47
2023-01-17T04:18:37.290Z,0.40
2023-01-17T04:23:39.161Z,0.40
2023-01-17T04:28:41.012Z,0.55
2023-01-17T04:33:43.147Z,0.50
2023-01-17T04:38:44.978Z,0.80
2023-01-17T04:43:46.868Z,0.70
2023-01-17T04:48:48.707Z,0.40
2023-01-17T04:53:50.585Z,0.45
2023-01-17T04:58:52.408Z,0.50
2023-01-17T05:03:54.284Z,0.70
2023-01-17T05:08:56.133Z,0.60
2023-01-17T05:13:57.963Z,0.70
2023-01-17T05:18:59.802Z,0.70
2023-01-17T05:24:01.688Z,1.00
2023-01-17T05:29:03.623Z,0.85
2023-01-17T05:34:05.463Z,0.90
2023-01-17T05:39:07.381Z,1.73
2023-01-17T05:44:09.294Z,1.17
2023-01-17T05:49:11.149Z,1.63
2023-01-17T05:54:13.077Z,0.88
2023-01-17T05:59:17.233Z,1.02
2023-01-17T06:04:20.720Z,0.70
2023-01-17T06:09:22.648Z,0.90
2023-01-17T06:14:24.673Z,1.10
2023-01-17T06:19:26.668Z,1.05
2023-01-17T06:24:28.615Z,0.90
2023-01-17T06:29:30.542Z,1.20
2023-01-17T06:34:32.479Z,1.23
2023-01-17T06:39:34.595Z,1.27
2023-01-17T06:44:36.546Z,1.00
2023-01-17T06:49:38.416Z,1.20
2023-01-17T06:54:40.305Z,4.97
2023-01-17T06:59:42.180Z,1.48
2023-01-17T07:04:44.219Z,1.40
2023-01-17T07:09:46.264Z,0.90
2023-01-17T07:14:48.089Z,0.98
2023-01-17T07:19:50.022Z,0.70
2023-01-17T07:24:53.614Z,0.80
2023-01-17T07:29:55.586Z,0.80
2023-01-17T07:34:58.206Z,0.80
2023-01-17T07:40:02.542Z,0.90
2023-01-17T07:45:04.938Z,0.88
2023-01-17T07:50:07.916Z,0.70
2023-01-17T07:55:14.007Z,1.02
2023-01-17T08:00:16.468Z,0.95
2023-01-17T08:05:18.340Z,0.90
2023-01-17T08:10:20.456Z,1.38
2023-01-17T08:15:23.651Z,1.63
2023-01-17T08:20:27.991Z,1.08
2023-01-17T08:25:30.307Z,1.48
2023-01-17T08:30:32.139Z,0.88
2023-01-17T08:35:36.117Z,1.10
2023-01-17T08:40:38.333Z,1.20
2023-01-17T08:45:43.628Z,1.05
2023-01-17T08:50:46.037Z,1.30
2023-01-17T08:55:48.157Z,0.82
2023-01-17T09:00:50.141Z,1.00
2023-01-17T09:06:20.457Z,1.23
2023-01-17T09:11:22.277Z,1.00
2023-01-17T09:16:24.334Z,1.00
2023-01-17T09:21:26.958Z,1.05
2023-01-17T09:26:30.081Z,1.00
2023-01-17T09:31:31.961Z,1.10
2023-01-17T09:36:34.065Z,0.90
2023-01-17T09:41:44.997Z,0.95
2023-01-17T09:46:50.129Z,1.23
2023-01-17T09:51:53.834Z,1.02
2023-01-17T09:57:40.586Z,1.13
2023-01-17T10:02:57.455Z,0.77
2023-01-17T10:08:36.759Z,1.00
2023-01-17T10:14:01.403Z,0.80
2023-01-17T10:19:37.177Z,0.68
2023-01-17T10:25:01.501Z,0.65
2023-01-17T10:30:22.806Z,1.45
2023-01-17T10:35:33.459Z,1.40
2023-01-17T10:40:46.735Z,1.00
2023-01-17T10:45:54.449Z,2.58
2023-01-17T10:51:10.839Z,1.33
2023-01-17T10:56:17.423Z,1.70
2023-01-17T11:01:21.037Z,1.10
2023-01-17T11:06:25.720Z,1.25
2023-01-17T11:11:36.321Z,1.08
2023-01-17T11:16:38.575Z,1.42
2023-01-17T11:21:50.291Z,1.10
2023-01-17T11:26:52.619Z,0.77
2023-01-17T11:31:56.344Z,0.75
2023-01-17T11:37:18.417Z,0.90
2023-01-17T11:42:38.461Z,1.15
2023-01-17T11:47:40.324Z,1.27
2023-01-17T11:52:42.317Z,1.65
2023-01-17T11:57:50.720Z,0.95
2023-01-17T12:03:15.347Z,1.13
2023-01-17T12:08:38.669Z,1.00
2023-01-17T12:14:00.863Z,1.00
2023-01-17T12:19:18.581Z,0.90
2023-01-17T12:24:32.602Z,0.82
2023-01-17T12:29:49.533Z,1.00
2023-01-17T12:35:12.340Z,1.25
2023-01-17T12:40:23.611Z,1.00
2023-01-17T12:45:34.577Z,1.33
2023-01-17T12:50:39.128Z,1.10
2023-01-17T12:56:11.268Z,0.98
2023-01-17T13:01:28.495Z,0.80
2023-01-17T13:07:00.707Z,0.95
2023-01-17T13:12:10.626Z,1.15
2023-01-17T13:17:37.463Z,1.75
2023-01-17T13:22:40.768Z,0.85
2023-01-17T13:28:24.412Z,0.93
2023-01-17T13:33:50.131Z,0.70
2023-01-17T13:38:57.719Z,0.70
2023-01-17T13:44:21.062Z,0.82
2023-01-17T13:49:34.191Z,1.00
2023-01-17T13:54:47.679Z,0.88
2023-01-17T13:59:50.341Z,0.90
2023-01-17T14:05:21.461Z,0.80
2023-01-17T14:10:32.383Z,0.75
2023-01-17T14:15:49.916Z,0.85
2023-01-17T14:21:08.018Z,0.70
2023-01-17T14:26:21.625Z,0.82
2023-01-17T14:31:24.705Z,3.38
2023-01-17T14:36:26.691Z,1.50
2023-01-17T14:41:29.743Z,1.10
2023-01-17T14:46:32.692Z,1.58
2023-01-17T14:51:35.592Z,1.25
2023-01-17T14:56:37.719Z,1.65
2023-01-17T15:01:41.060Z,3.25
2023-01-17T15:06:44.009Z,4.13
2023-01-17T15:11:48.242Z,3.20
2023-01-17T15:16:52.185Z,2.92
2023-01-17T15:21:54.836Z,1.67
2023-01-17T15:26:56.859Z,2.55
2023-01-17T15:32:01.649Z,3.38
2023-01-17T15:37:08.047Z,5.60
2023-01-17T15:42:21.060Z,3.72
2023-01-17T15:47:33.739Z,4.72
2023-01-17T15:52:49.365Z,8.40
2023-01-17T15:57:51.185Z,10.48
2023-01-17T16:02:58.981Z,8.98
2023-01-17T16:08:04.448Z,7.03
2023-01-17T16:13:07.980Z,6.20
2023-01-17T16:18:24.672Z,6.57
2023-01-17T16:23:27.862Z,5.30
2023-01-17T16:28:29.690Z,5.50
2023-01-17T16:33:31.522Z,4.72
2023-01-17T16:38:33.408Z,6.45
2023-01-17T16:43:35.304Z,5.95
2023-01-17T16:48:37.917Z,6.10
2023-01-17T16:53:39.815Z,6.82
2023-01-17T16:58:41.803Z,6.80
2023-01-17T17:03:44.605Z,5.60
2023-01-17T17:08:46.487Z,6.00
2023-01-17T17:13:49.965Z,7.93
2023-01-17T17:19:00.427Z,7.72
2023-01-17T17:24:02.621Z,11.82
2023-01-17T17:29:06.129Z,7.65
2023-01-17T17:34:10.712Z,10.35
2023-01-17T17:39:14.997Z,10.63
2023-01-17T17:44:17.838Z,14.48
2023-01-17T17:49:21.883Z,12.68
2023-01-17T17:54:24.799Z,12.30
2023-01-17T17:59:26.740Z,14.15
2023-01-17T18:04:28.670Z,13.32
2023-01-17T18:09:30.672Z,10.65
2023-01-17T18:14:32.622Z,9.77
2023-01-17T18:19:34.441Z,9.52
2023-01-17T18:24:36.271Z,8.93
2023-01-17T18:29:38.117Z,8.52
2023-01-17T18:34:41.631Z,9.25
2023-01-17T18:39:43.922Z,11.90
2023-01-17T18:44:45.760Z,10.15
2023-01-17T18:49:47.597Z,10.35
2023-01-17T18:54:49.438Z,11.88
2023-01-17T18:59:51.296Z,9.60
2023-01-17T19:04:53.086Z,9.45
2023-01-17T19:09:54.994Z,6.85
2023-01-17T19:14:56.772Z,6.80
2023-01-17T19:19:58.573Z,5.82
2023-01-17T19:25:00.456Z,6.07
2023-01-17T19:30:02.293Z,6.32
2023-01-17T19:35:04.318Z,6.88
2023-01-17T19:40:08.368Z,6.47
2023-01-17T19:45:12.348Z,6.93
2023-01-17T19:50:15.050Z,9.27
2023-01-17T19:55:17.810Z,9.75
2023-01-17T20:00:24.040Z,9.38
2023-01-17T20:05:29.147Z,9.23
2023-01-17T20:10:31.421Z,6.60
2023-01-17T20:15:34.368Z,6.80
2023-01-17T20:20:39.588Z,5.55
2023-01-17T20:25:59.115Z,6.13
2023-01-17T20:31:15.018Z,6.90
2023-01-17T20:36:17.965Z,7.45
2023-01-17T20:41:24.198Z,8.77
2023-01-17T20:46:29.150Z,8.80
2023-01-17T20:51:34.474Z,9.02
2023-01-17T20:56:37.845Z,11.65
2023-01-17T21:01:40.294Z,7.80
2023-01-17T21:06:44.127Z,7.68
2023-01-17T21:11:46.066Z,7.32
2023-01-17T21:16:47.980Z,6.78
2023-01-17T21:21:51.199Z,6.57
2023-01-17T21:26:53.023Z,6.50
2023-01-17T21:31:55.974Z,5.97
2023-01-17T21:36:57.825Z,6.65
2023-01-17T21:41:59.695Z,7.25
2023-01-17T21:47:02.007Z,8.50
2023-01-17T21:52:04.258Z,9.27
2023-01-17T21:57:24.976Z,8.55
2023-01-17T22:02:27.029Z,8.55
2023-01-17T22:07:29.274Z,7.38
2023-01-17T22:12:31.260Z,6.75
2023-01-17T22:17:33.126Z,7.47
2023-01-17T22:22:35.217Z,7.00
2023-01-17T22:27:37.060Z,7.22
2023-01-17T22:32:39.746Z,6.28
2023-01-17T22:37:41.715Z,6.85
2023-01-17T22:42:44.116Z,6.07
2023-01-17T22:47:46.136Z,5.57
2023-01-17T22:52:48.041Z,5.13
2023-01-17T22:57:50.216Z,5.75
2023-01-17T23:02:52.159Z,5.95
2023-01-17T23:07:54.134Z,4.35
2023-01-17T23:12:56.310Z,4.97
2023-01-17T23:18:16.899Z,4.38
2023-01-17T23:23:18.698Z,3.60
2023-01-17T23:28:20.904Z,3.78
2023-01-17T23:33:22.843Z,3.92
2023-01-17T23:38:29.740Z,3.78
2023-01-17T23:43:32.994Z,3.72
2023-01-17T23:48:34.818Z,4.22
2023-01-17T23:53:38.445Z,3.92
2023-01-17T23:58:40.592Z,4.65
